Buraimi, Oman
Current Conditions -  °F | °C
As of 8:00 AM on Monday 20 Oct 2014 (Local Time) from OMAL Reporting Station
Clear Clear  
Wind Chill: 77°   Ceiling: Unl
Heat Index: 79°   Visibility: 6mi
Dew Point: 66°   Wind: 8mph
Humidity: 69%   Direction: 50°NE
Pressure: 29.94"   Gusts: NA
Location:  24.25°N, 55.79°E
Report Text: OMAL 200400Z 05007KT CAVOK 25/19 Q1014 A2996 NOSIG
Loading
Personal Weather Stations






























Interactive Weather Map
Tropical Storm Tracking
New forecast layout! Learn more

10-Day Weather Forecast

Advertisements
Track Severe Weather on mobile